Airfield :
LOGIN :

Register | Disclaimer

   EN    FR    IT 

 










Legend :    VFR   Marginal VFR   IFR   Intensive IFR   Very Intensive IFR
Visi :
Ceiling :
>= 8 km
>= 3000ft
5 to 8 km
1000 to 3000 ft
1500m to 5 km
500 to 1000 ft
800 to 1500m
200 to 500 ft
< 800m
< 200 ft
Symbols :   Thunderstorms  Fog  Heavy snow  Heavy precipitations  Wind > 20 kt
SIGMETs :     Misc.  Thunderstorms  Icing  Turbulence  Mountain Waves  Volcanic Ashes






- Airport Elevation : 28 ft
- IATA code : SOZ


LFKS - Solenzara

CURRENT METAR :
  • 160400Z AUTO 36003KT 290V020 CAVOK 15/06 Q1015

EXPIRED METARs :
  • 160330Z AUTO VRB03KT CAVOK 17/05 Q1014
  • 160300Z AUTO 27006KT 200V010 CAVOK 19/05 Q1014
  • 160230Z AUTO 27005KT 220V320 CAVOK 18/05 Q1014
  • 160200Z AUTO 25007KT 210V300 CAVOK 18/05 Q1014
  • 160130Z AUTO 24006KT 190V290 CAVOK 18/06 Q1014

TAF TAF LFKS
Valid from the 16 at 03:00 until the 17 at 03:00 UTC


160200Z 1603/1703 30003KT CAVOK
PROB30
TEMPO 1604/1607 27015G25KT



MET'MAP, your aeronautical weather chart ! - Copyright ORBIFLY December 2007 - Disclaimer

ORBIFLY MET'MAP TEAM :

Programming & Development : Alexandra Zaïnal
Concept & Development : Baudouin d'Aumeries
Co-Development & Prog : Marc-Olivier Méhu
Technical & hardware support : Manuel Goepfert

Contact : metmap@orbifly.com




SOURCES & CREDITS :

   NOAA